Notam

Notam - Ancona - LIPY

[Source: ADDS]
METAR
LIPY 212050Z 17004KT CAVOK 23/19 Q1015 =
LIPY 211700Z 2118/2218 VRB04KT CAVOK TEMPO 2201/2205 4000 BR BECMG 2210/2212 02010KT
TAF
LIPY 211700Z 2118/2218 VRB04KT CAVOK TEMPO 2201/2205 4000 BR BECMG 2210/2212 02010KT =
SR / SS: 04:54 / 17:06 UTC (Effemeridi 2018-09-21)

Abbiamo 359 visitatori e nessun utente online

 Quelli che il drone

   Strada della Marina, 1A

     60019 Senigallia AN, Italia

  Telefono: (+39) 338/6041090